aviador You're here:

NTAA Decoded Metar

Tahiti Papeete in FRENCH POLYNESIA
Report Time2017-08-23 04:00:00
UTC Time2017-08-23 04:14:28
Flight Rules vfr VFR
WindVRB at 02 kt
Visibility9999 m
Phenomena:N/A
Clouds:Few 026 Hf
Expected CloudBase > 4,000 ft AGL from Temp-Dew spread
CeilingNone
Temp27°C (ISA +12)
Dew Point17°C (54% RH)
Heat Index27.7°C
QNH1015 hPa
Density Alt1,581 ft
Elevation7 ft
Report Wrong Elevation
Raw Report
NTAA 230400Z VRB02KT 9999 FEW026 27/17 Q1015 WS ALL RWY NOSIG=

Extra information for NTAA:More info

Metar Taf Metar & Taf Last 4 Metars F.Rules Stats Wind Profile Meteogram Temp Stats Airport Information Weather charts Add Link Nearby VenuesMetar ALERT Operation Metar Decoded Social comments